createdAt,value
2022-12-07T00:00:34.959Z,5.79
2022-12-07T00:01:34.965Z,5.84
2022-12-07T00:02:35.099Z,5.84
2022-12-07T00:03:35.044Z,5.80
2022-12-07T00:04:34.924Z,5.82
2022-12-07T00:05:34.903Z,5.80
2022-12-07T00:06:34.923Z,5.88
2022-12-07T00:07:34.994Z,5.84
2022-12-07T00:08:34.874Z,5.79
2022-12-07T00:09:34.871Z,5.79
2022-12-07T00:10:34.860Z,5.79
2022-12-07T00:11:34.855Z,5.77
2022-12-07T00:12:34.863Z,5.77
2022-12-07T00:13:34.812Z,5.84
2022-12-07T00:14:34.804Z,5.85
2022-12-07T00:15:34.800Z,5.82
2022-12-07T00:16:34.967Z,5.75
2022-12-07T00:17:34.804Z,5.82
2022-12-07T00:18:34.758Z,5.77
2022-12-07T00:19:34.744Z,5.84
2022-12-07T00:20:34.739Z,5.82
2022-12-07T00:21:34.754Z,5.70
2022-12-07T00:22:34.760Z,5.76
2022-12-07T00:23:34.733Z,5.75
2022-12-07T00:24:34.717Z,5.75
2022-12-07T00:25:34.678Z,5.80
2022-12-07T00:26:34.704Z,5.75
2022-12-07T00:27:34.699Z,5.73
2022-12-07T00:28:34.656Z,5.77
2022-12-07T00:29:34.633Z,5.70
2022-12-07T00:30:34.638Z,5.73
2022-12-07T00:31:34.773Z,5.72
2022-12-07T00:32:34.629Z,5.79
2022-12-07T00:33:34.596Z,5.70
2022-12-07T00:34:34.584Z,5.69
2022-12-07T00:35:34.574Z,5.76
2022-12-07T00:36:34.583Z,5.75
2022-12-07T00:37:34.581Z,5.75
2022-12-07T00:38:34.563Z,5.66
2022-12-07T00:39:34.570Z,5.72
2022-12-07T00:40:34.529Z,5.66
2022-12-07T00:41:34.540Z,5.72
2022-12-07T00:42:34.519Z,5.66
2022-12-07T00:43:34.488Z,5.70
2022-12-07T00:44:34.504Z,5.75
2022-12-07T00:45:34.510Z,5.69
2022-12-07T00:46:34.479Z,5.66
2022-12-07T00:47:34.436Z,5.65
2022-12-07T00:48:34.465Z,5.70
2022-12-07T00:49:34.468Z,5.67
2022-12-07T00:50:34.428Z,5.72
2022-12-07T00:51:34.416Z,5.65
2022-12-07T00:52:34.398Z,5.66
2022-12-07T00:53:38.071Z,5.65
2022-12-07T00:54:35.377Z,5.58
2022-12-07T00:55:34.378Z,5.69
2022-12-07T00:56:34.365Z,5.65
2022-12-07T00:57:34.349Z,5.61
2022-12-07T00:58:34.327Z,5.58
2022-12-07T00:59:34.315Z,5.62
2022-12-07T01:00:34.351Z,5.62
2022-12-07T01:01:34.429Z,5.62
2022-12-07T01:02:34.278Z,5.59
2022-12-07T01:03:34.391Z,5.62
2022-12-07T01:04:34.276Z,5.62
2022-12-07T01:05:34.270Z,5.62
2022-12-07T01:06:34.279Z,5.65
2022-12-07T01:07:34.286Z,5.58
2022-12-07T01:08:34.223Z,5.70
2022-12-07T01:09:34.200Z,5.59
2022-12-07T01:10:34.204Z,5.67
2022-12-07T01:11:34.228Z,5.62
2022-12-07T01:12:34.206Z,5.62
2022-12-07T01:13:34.181Z,5.59
2022-12-07T01:14:34.149Z,5.69
2022-12-07T01:15:34.140Z,5.66
2022-12-07T01:16:34.247Z,5.58
2022-12-07T01:17:34.140Z,5.52
2022-12-07T01:18:34.142Z,5.57
2022-12-07T01:19:34.110Z,5.50
2022-12-07T01:20:34.089Z,5.48
2022-12-07T01:21:34.072Z,5.57
2022-12-07T01:22:34.070Z,5.59
2022-12-07T01:23:34.088Z,5.52
2022-12-07T01:24:34.052Z,5.54
2022-12-07T01:25:34.050Z,5.52
2022-12-07T01:26:34.055Z,5.47
2022-12-07T01:27:34.029Z,5.48
2022-12-07T01:28:34.015Z,5.47
2022-12-07T01:29:34.000Z,5.54
2022-12-07T01:30:34.059Z,5.44
2022-12-07T01:31:33.997Z,5.51
2022-12-07T01:32:33.965Z,5.47
2022-12-07T01:33:33.957Z,5.48
2022-12-07T01:34:33.953Z,5.41
2022-12-07T01:35:33.927Z,5.51
2022-12-07T01:36:33.911Z,5.40
2022-12-07T01:37:33.920Z,5.50
2022-12-07T01:38:33.901Z,5.43
2022-12-07T01:39:33.888Z,5.39
2022-12-07T01:40:33.891Z,5.43
2022-12-07T01:41:33.861Z,5.41
2022-12-07T01:42:33.868Z,5.40
2022-12-07T01:43:33.852Z,5.33
2022-12-07T01:44:33.845Z,5.40
2022-12-07T01:45:33.813Z,5.30
2022-12-07T01:46:33.874Z,5.44
2022-12-07T01:47:33.822Z,5.43
2022-12-07T01:48:33.786Z,5.43
2022-12-07T01:49:33.775Z,5.47
2022-12-07T01:50:33.774Z,5.43
2022-12-07T01:51:33.756Z,5.34
2022-12-07T01:52:33.767Z,5.30
2022-12-07T01:53:33.725Z,5.36
2022-12-07T01:54:33.727Z,5.34
2022-12-07T01:55:33.694Z,5.40
2022-12-07T01:56:33.707Z,5.33
2022-12-07T01:57:33.723Z,5.40
2022-12-07T01:58:33.666Z,5.40
2022-12-07T01:59:33.675Z,5.37
2022-12-07T02:00:33.651Z,5.29
2022-12-07T02:01:33.671Z,5.34
2022-12-07T02:02:33.691Z,5.34
2022-12-07T02:03:33.641Z,5.32
2022-12-07T02:04:33.617Z,5.32
2022-12-07T02:05:33.596Z,5.32
2022-12-07T02:06:33.584Z,5.32
2022-12-07T02:07:33.681Z,5.36
2022-12-07T02:08:33.598Z,5.34
2022-12-07T02:09:33.549Z,5.30
2022-12-07T02:10:33.547Z,5.34
2022-12-07T02:11:33.547Z,5.30
2022-12-07T02:12:33.548Z,5.36
2022-12-07T02:13:33.525Z,5.27
2022-12-07T02:14:33.517Z,5.21
2022-12-07T02:15:33.576Z,5.27
2022-12-07T02:16:33.475Z,5.30
2022-12-07T02:17:33.497Z,5.25
2022-12-07T02:18:33.450Z,5.24
2022-12-07T02:19:33.461Z,5.29
2022-12-07T02:20:33.459Z,5.25
2022-12-07T02:21:33.429Z,5.30
2022-12-07T02:22:33.434Z,5.21
2022-12-07T02:23:33.425Z,5.22
2022-12-07T02:24:33.380Z,5.22
2022-12-07T02:25:33.400Z,5.27
2022-12-07T02:26:33.360Z,5.19
2022-12-07T02:27:33.359Z,5.25
2022-12-07T02:28:33.361Z,5.29
2022-12-07T02:29:33.366Z,5.25
2022-12-07T02:30:33.343Z,5.25
2022-12-07T02:31:33.516Z,5.21
2022-12-07T02:32:33.295Z,5.18
2022-12-07T02:33:33.285Z,5.25
2022-12-07T02:34:33.304Z,5.19
2022-12-07T02:35:33.289Z,5.21
2022-12-07T02:36:33.276Z,5.24
2022-12-07T02:37:33.245Z,5.16
2022-12-07T02:38:33.245Z,5.18
2022-12-07T02:39:33.261Z,5.19
2022-12-07T02:40:33.220Z,5.21
2022-12-07T02:41:33.238Z,5.19
2022-12-07T02:42:33.211Z,5.22
2022-12-07T02:43:33.197Z,5.21
2022-12-07T02:44:33.162Z,5.14
2022-12-07T02:45:33.163Z,5.14
2022-12-07T02:46:33.245Z,5.11
2022-12-07T02:47:33.157Z,5.16
2022-12-07T02:48:33.139Z,5.09
2022-12-07T02:49:33.112Z,5.09
2022-12-07T02:50:33.104Z,5.19
2022-12-07T02:51:33.123Z,5.14
2022-12-07T02:52:33.101Z,5.15
2022-12-07T02:53:33.071Z,5.15
2022-12-07T02:54:33.084Z,5.15
2022-12-07T02:55:33.054Z,5.12
2022-12-07T02:56:33.053Z,5.07
2022-12-07T02:57:33.024Z,5.06
2022-12-07T02:58:33.038Z,5.07
2022-12-07T02:59:33.006Z,5.07
2022-12-07T03:00:33.000Z,5.09
2022-12-07T03:01:33.085Z,5.07
2022-12-07T03:02:33.025Z,5.04
2022-12-07T03:03:32.983Z,5.09
2022-12-07T03:04:32.961Z,5.09
2022-12-07T03:05:32.956Z,5.07
2022-12-07T03:06:32.965Z,5.09
2022-12-07T03:07:32.925Z,5.04
2022-12-07T03:08:32.912Z,5.09
2022-12-07T03:09:32.919Z,4.98
2022-12-07T03:10:32.894Z,4.98
2022-12-07T03:11:32.887Z,5.01
2022-12-07T03:12:32.862Z,5.12
2022-12-07T03:13:32.888Z,5.01
2022-12-07T03:14:32.836Z,5.07
2022-12-07T03:15:32.953Z,5.03
2022-12-07T03:16:32.822Z,4.98
2022-12-07T03:17:32.817Z,5.01
2022-12-07T03:18:32.794Z,5.12
2022-12-07T03:19:32.804Z,4.97
2022-12-07T03:20:32.778Z,5.00
2022-12-07T03:21:32.789Z,5.03
2022-12-07T03:22:32.751Z,5.01
2022-12-07T03:23:32.772Z,5.09
2022-12-07T03:24:32.734Z,4.98
2022-12-07T03:25:32.729Z,5.01
2022-12-07T03:26:32.730Z,4.96
2022-12-07T03:27:32.704Z,4.96
2022-12-07T03:28:32.701Z,4.98
2022-12-07T03:29:32.689Z,4.97
2022-12-07T03:30:32.668Z,5.04
2022-12-07T03:31:32.823Z,4.98
2022-12-07T03:32:32.644Z,5.01
2022-12-07T03:33:32.666Z,4.94
2022-12-07T03:34:32.633Z,4.94
2022-12-07T03:35:32.631Z,5.00
2022-12-07T03:36:32.628Z,4.98
2022-12-07T03:37:32.600Z,4.93
2022-12-07T03:38:32.603Z,4.96
2022-12-07T03:39:32.573Z,4.97
2022-12-07T03:40:32.574Z,4.96
2022-12-07T03:41:32.580Z,4.98
2022-12-07T03:42:32.532Z,4.91
2022-12-07T03:43:32.548Z,4.98
2022-12-07T03:44:32.514Z,4.86
2022-12-07T03:45:32.523Z,4.93
2022-12-07T03:46:32.558Z,4.96
2022-12-07T03:47:32.512Z,4.93
2022-12-07T03:48:32.478Z,4.89
2022-12-07T03:49:32.511Z,4.96
2022-12-07T03:50:32.457Z,4.91
2022-12-07T03:51:32.498Z,4.96
2022-12-07T03:52:32.455Z,4.91
2022-12-07T03:53:32.419Z,4.91
2022-12-07T03:54:32.417Z,5.00
2022-12-07T03:55:32.409Z,4.86
2022-12-07T03:56:32.405Z,4.97
2022-12-07T03:57:32.439Z,4.91
2022-12-07T03:58:32.365Z,4.98
2022-12-07T03:59:32.347Z,4.96
2022-12-07T04:00:32.343Z,4.91
2022-12-07T04:01:32.442Z,4.86
2022-12-07T04:02:32.358Z,4.89
2022-12-07T04:03:32.317Z,4.89
2022-12-07T04:04:32.289Z,4.94
2022-12-07T04:05:32.286Z,4.96
2022-12-07T04:06:32.276Z,4.89
2022-12-07T04:07:32.311Z,4.86
2022-12-07T04:08:32.255Z,4.89
2022-12-07T04:09:32.267Z,4.86
2022-12-07T04:10:32.234Z,4.75
2022-12-07T04:11:32.235Z,4.91
2022-12-07T04:12:32.262Z,4.93
2022-12-07T04:13:32.210Z,4.89
2022-12-07T04:14:32.203Z,4.96
2022-12-07T04:15:32.174Z,4.89
2022-12-07T04:16:32.303Z,4.91
2022-12-07T04:17:32.182Z,4.94
2022-12-07T04:18:32.139Z,4.86
2022-12-07T04:19:32.132Z,4.74
2022-12-07T04:20:32.121Z,4.88
2022-12-07T04:21:32.146Z,4.89
2022-12-07T04:22:32.101Z,4.91
2022-12-07T04:23:32.137Z,4.93
2022-12-07T04:24:32.086Z,4.86
2022-12-07T04:25:32.082Z,4.86
2022-12-07T04:26:32.066Z,4.94
2022-12-07T04:27:32.044Z,4.96
2022-12-07T04:28:32.068Z,4.93
2022-12-07T04:29:32.040Z,4.78
2022-12-07T04:30:32.010Z,4.89
2022-12-07T04:31:32.081Z,4.78
2022-12-07T04:32:31.994Z,4.91
2022-12-07T04:33:32.016Z,4.94
2022-12-07T04:34:31.974Z,4.88
2022-12-07T04:35:31.959Z,4.89
2022-12-07T04:36:31.961Z,4.93
2022-12-07T04:37:31.940Z,4.93
2022-12-07T04:38:31.951Z,4.91
2022-12-07T04:39:31.936Z,4.94
2022-12-07T04:40:31.931Z,4.86
2022-12-07T04:41:31.902Z,4.89
2022-12-07T04:42:31.899Z,4.88
2022-12-07T04:43:31.871Z,4.94
2022-12-07T04:44:31.855Z,4.89
2022-12-07T04:45:31.868Z,4.83
2022-12-07T04:46:31.905Z,4.89
2022-12-07T04:47:31.872Z,4.94
2022-12-07T04:48:31.819Z,4.88
2022-12-07T04:49:31.828Z,4.83
2022-12-07T04:50:31.815Z,4.79
2022-12-07T04:51:31.791Z,4.91
2022-12-07T04:52:31.779Z,4.89
2022-12-07T04:53:31.794Z,4.94
2022-12-07T04:54:31.749Z,4.93
2022-12-07T04:55:31.789Z,4.88
2022-12-07T04:56:31.766Z,4.96
2022-12-07T04:57:31.727Z,4.91
2022-12-07T04:58:31.721Z,4.86
2022-12-07T04:59:31.713Z,4.89
2022-12-07T05:00:31.768Z,4.89
2022-12-07T05:01:31.705Z,4.93
2022-12-07T05:02:31.727Z,4.89
2022-12-07T05:03:31.652Z,4.89
2022-12-07T05:04:31.651Z,4.94
2022-12-07T05:05:31.664Z,4.85
2022-12-07T05:06:31.614Z,4.88
2022-12-07T05:07:31.613Z,4.94
2022-12-07T05:08:31.638Z,4.93
2022-12-07T05:09:31.586Z,4.86
2022-12-07T05:10:31.571Z,4.97
2022-12-07T05:11:31.616Z,4.94
2022-12-07T05:12:31.554Z,4.91
2022-12-07T05:13:31.558Z,4.86
2022-12-07T05:14:31.532Z,4.98
2022-12-07T05:15:31.531Z,4.91
2022-12-07T05:16:31.595Z,4.91
2022-12-07T05:17:31.531Z,4.93
2022-12-07T05:18:31.484Z,4.88
2022-12-07T05:19:31.491Z,4.93
2022-12-07T05:20:31.472Z,4.98
2022-12-07T05:21:31.468Z,4.88
2022-12-07T05:22:31.488Z,4.96
2022-12-07T05:23:31.437Z,4.97
2022-12-07T05:24:31.422Z,4.97
2022-12-07T05:25:31.427Z,4.96
2022-12-07T05:26:31.400Z,4.98
2022-12-07T05:27:31.439Z,4.96
2022-12-07T05:28:31.408Z,5.00
2022-12-07T05:29:31.368Z,4.97
2022-12-07T05:30:31.360Z,4.97
2022-12-07T05:31:31.457Z,4.97
2022-12-07T05:32:31.333Z,4.93
2022-12-07T05:33:31.351Z,4.98
2022-12-07T05:34:31.319Z,4.98
2022-12-07T05:35:31.309Z,4.96
2022-12-07T05:36:31.329Z,4.98
2022-12-07T05:37:31.321Z,4.98
2022-12-07T05:38:31.283Z,4.98
2022-12-07T05:39:31.261Z,5.00
2022-12-07T05:40:31.256Z,4.97
2022-12-07T05:41:31.258Z,4.97
2022-12-07T05:42:31.240Z,4.98
2022-12-07T05:43:31.241Z,5.03
2022-12-07T05:44:31.201Z,4.98
2022-12-07T05:45:31.334Z,4.98
2022-12-07T05:46:31.258Z,5.01
2022-12-07T05:47:31.181Z,4.98
2022-12-07T05:48:31.170Z,4.96
2022-12-07T05:49:31.189Z,5.00
2022-12-07T05:50:31.182Z,5.01
2022-12-07T05:51:31.143Z,4.98
2022-12-07T05:52:31.138Z,5.01
2022-12-07T05:53:31.116Z,5.00
2022-12-07T05:54:31.113Z,5.07
2022-12-07T05:55:31.096Z,5.00
2022-12-07T05:56:31.075Z,4.98
2022-12-07T05:57:31.100Z,5.00
2022-12-07T05:58:31.065Z,5.12
2022-12-07T05:59:31.062Z,4.96
2022-12-07T06:00:31.037Z,5.01
2022-12-07T06:01:31.023Z,5.03
2022-12-07T06:02:31.141Z,5.07
2022-12-07T06:03:31.073Z,5.04
2022-12-07T06:04:30.993Z,5.07
2022-12-07T06:05:30.986Z,5.09
2022-12-07T06:06:31.001Z,5.07
2022-12-07T06:07:30.997Z,5.00
2022-12-07T06:08:30.979Z,4.97
2022-12-07T06:09:30.931Z,5.07
2022-12-07T06:10:30.925Z,5.15
2022-12-07T06:11:30.934Z,5.11
2022-12-07T06:12:30.939Z,5.09
2022-12-07T06:13:30.894Z,5.15
2022-12-07T06:14:30.892Z,5.09
2022-12-07T06:15:30.889Z,5.12
2022-12-07T06:16:30.914Z,5.03
2022-12-07T06:17:30.879Z,5.07
2022-12-07T06:18:30.829Z,5.00
2022-12-07T06:19:30.830Z,5.15
2022-12-07T06:20:30.812Z,5.06
2022-12-07T06:21:30.833Z,5.07
2022-12-07T06:22:30.825Z,5.07
2022-12-07T06:23:30.798Z,5.11
2022-12-07T06:24:30.776Z,5.12
2022-12-07T06:25:30.762Z,5.09
2022-12-07T06:26:30.752Z,5.07
2022-12-07T06:27:30.763Z,5.07
2022-12-07T06:28:30.743Z,5.06
2022-12-07T06:29:30.730Z,5.06
2022-12-07T06:30:30.702Z,5.14
2022-12-07T06:31:30.746Z,5.06
2022-12-07T06:32:30.730Z,5.11
2022-12-07T06:33:30.680Z,5.04
2022-12-07T06:34:30.661Z,5.07
2022-12-07T06:35:30.669Z,5.07
2022-12-07T06:36:30.644Z,5.06
2022-12-07T06:37:30.638Z,5.11
2022-12-07T06:38:30.649Z,5.06
2022-12-07T06:39:30.621Z,5.11
2022-12-07T06:40:30.594Z,5.11
2022-12-07T06:41:30.603Z,5.06
2022-12-07T06:42:30.604Z,5.12
2022-12-07T06:43:30.584Z,5.06
2022-12-07T06:44:30.553Z,5.06
2022-12-07T06:45:30.673Z,5.04
2022-12-07T06:46:30.577Z,5.07
2022-12-07T06:47:47.173Z,5.04
2022-12-07T06:48:31.532Z,5.03
2022-12-07T06:49:30.514Z,5.15
2022-12-07T06:50:30.488Z,5.15
2022-12-07T06:51:30.472Z,5.04
2022-12-07T06:52:30.503Z,5.16
2022-12-07T06:53:30.453Z,5.03
2022-12-07T06:54:30.468Z,5.03
2022-12-07T06:55:30.438Z,5.14
2022-12-07T06:56:30.419Z,5.12
2022-12-07T06:57:30.451Z,5.03
2022-12-07T06:58:30.428Z,5.18
2022-12-07T06:59:30.388Z,5.14
2022-12-07T07:00:30.462Z,5.03
2022-12-07T07:01:30.427Z,5.07
2022-12-07T07:02:30.440Z,5.12
2022-12-07T07:03:30.364Z,5.09
2022-12-07T07:04:30.361Z,5.07
2022-12-07T07:05:30.329Z,5.09
2022-12-07T07:06:30.309Z,5.15
2022-12-07T07:07:30.293Z,5.12
2022-12-07T07:08:30.330Z,5.14
2022-12-07T07:09:30.385Z,5.11
2022-12-07T07:10:30.276Z,5.15
2022-12-07T07:11:30.262Z,5.07
2022-12-07T07:12:30.261Z,5.12
2022-12-07T07:13:30.249Z,5.11
2022-12-07T07:14:30.233Z,5.15
2022-12-07T07:15:30.245Z,5.18
2022-12-07T07:16:30.292Z,5.09
2022-12-07T07:17:30.192Z,5.14
2022-12-07T07:18:30.247Z,5.18
2022-12-07T07:19:30.204Z,5.15
2022-12-07T07:20:30.176Z,5.19
2022-12-07T07:21:30.157Z,5.12
2022-12-07T07:22:30.157Z,5.07
2022-12-07T07:23:30.140Z,5.15
2022-12-07T07:24:30.124Z,5.12
2022-12-07T07:25:30.097Z,5.07
2022-12-07T07:26:30.092Z,5.19
2022-12-07T07:27:30.076Z,5.19
2022-12-07T07:28:30.110Z,5.15
2022-12-07T07:29:30.089Z,5.21
2022-12-07T07:30:30.332Z,5.12
2022-12-07T07:31:30.032Z,5.16
2022-12-07T07:32:30.028Z,5.24
2022-12-07T07:33:30.010Z,5.18
2022-12-07T07:34:30.875Z,5.21
2022-12-07T07:35:30.017Z,5.21
2022-12-07T07:36:29.981Z,5.16
2022-12-07T07:37:29.972Z,5.22
2022-12-07T07:38:30.021Z,5.16
2022-12-07T07:39:29.981Z,5.21
2022-12-07T07:40:29.970Z,5.22
2022-12-07T07:41:29.923Z,5.25
2022-12-07T07:42:29.934Z,5.22
2022-12-07T07:43:29.939Z,5.24
2022-12-07T07:44:34.786Z,5.24
2022-12-07T07:45:30.884Z,5.18
2022-12-07T07:46:29.972Z,5.27
2022-12-07T07:47:29.882Z,5.24
2022-12-07T07:48:29.856Z,5.21
2022-12-07T07:49:29.856Z,5.19
2022-12-07T07:50:29.851Z,5.24
2022-12-07T07:51:29.834Z,5.16
2022-12-07T07:52:29.831Z,5.24
2022-12-07T07:53:29.797Z,5.22
2022-12-07T07:54:29.812Z,5.33
2022-12-07T07:55:29.789Z,5.29
2022-12-07T07:56:29.780Z,5.25
2022-12-07T07:57:29.759Z,5.25
2022-12-07T07:58:29.779Z,5.32
2022-12-07T07:59:29.728Z,5.25
2022-12-07T08:00:29.719Z,5.27
2022-12-07T08:01:29.792Z,5.24
2022-12-07T08:02:29.725Z,5.24
2022-12-07T08:03:29.689Z,5.27
2022-12-07T08:04:29.759Z,5.27
2022-12-07T08:05:29.707Z,5.24
2022-12-07T08:06:32.337Z,5.32
2022-12-07T08:07:29.686Z,5.25
2022-12-07T08:08:29.684Z,5.30
2022-12-07T08:09:29.651Z,5.32
2022-12-07T08:10:29.611Z,5.36
2022-12-07T08:11:29.604Z,5.32
2022-12-07T08:12:29.593Z,5.30
2022-12-07T08:13:31.553Z,5.27
2022-12-07T08:14:29.592Z,5.33
2022-12-07T08:15:29.652Z,5.37
2022-12-07T08:16:29.609Z,5.25
2022-12-07T08:17:29.534Z,5.29
2022-12-07T08:18:29.525Z,5.29
2022-12-07T08:19:29.536Z,5.33
2022-12-07T08:20:29.506Z,5.32
2022-12-07T08:21:29.489Z,5.32
2022-12-07T08:22:29.497Z,5.36
2022-12-07T08:23:34.882Z,5.32
2022-12-07T08:24:30.482Z,5.29
2022-12-07T08:25:29.469Z,5.32
2022-12-07T08:26:29.463Z,5.29
2022-12-07T08:27:29.440Z,5.36
2022-12-07T08:28:29.426Z,5.32
2022-12-07T08:29:29.442Z,5.33
2022-12-07T08:30:29.443Z,5.40
2022-12-07T08:31:29.528Z,5.40
2022-12-07T08:32:29.375Z,5.39
2022-12-07T08:33:29.365Z,5.36
2022-12-07T08:34:29.359Z,5.43
2022-12-07T08:35:29.339Z,5.39
2022-12-07T08:36:29.358Z,5.43
2022-12-07T08:37:29.332Z,5.36
2022-12-07T08:38:31.981Z,5.32
2022-12-07T08:39:32.089Z,5.39
2022-12-07T08:40:29.340Z,5.40
2022-12-07T08:41:29.274Z,5.30
2022-12-07T08:42:29.273Z,5.32
2022-12-07T08:43:29.265Z,5.37
2022-12-07T08:44:29.243Z,5.43
2022-12-07T08:45:29.238Z,5.37
2022-12-07T08:46:29.299Z,5.34
2022-12-07T08:47:29.216Z,5.37
2022-12-07T08:48:29.212Z,5.36
2022-12-07T08:49:29.212Z,5.41
2022-12-07T08:50:29.193Z,5.39
2022-12-07T08:51:29.161Z,5.39
2022-12-07T08:52:29.172Z,5.43
2022-12-07T08:53:29.154Z,5.36
2022-12-07T08:54:29.151Z,5.39
2022-12-07T08:55:29.142Z,5.40
2022-12-07T08:56:29.112Z,5.41
2022-12-07T08:57:29.128Z,5.39
2022-12-07T08:58:29.099Z,5.37
2022-12-07T08:59:29.091Z,5.40
2022-12-07T09:00:29.071Z,5.33
2022-12-07T09:01:29.176Z,5.50
2022-12-07T09:02:29.069Z,5.47
2022-12-07T09:03:29.044Z,5.41
2022-12-07T09:04:29.109Z,5.48
2022-12-07T09:05:29.061Z,5.40
2022-12-07T09:06:29.183Z,5.44
2022-12-07T09:07:29.043Z,5.41
2022-12-07T09:08:29.103Z,5.41
2022-12-07T09:09:28.983Z,5.48
2022-12-07T09:10:28.955Z,5.50
2022-12-07T09:11:29.257Z,5.43
2022-12-07T09:12:28.944Z,5.57
2022-12-07T09:13:28.951Z,5.47
2022-12-07T09:14:28.917Z,5.52
2022-12-07T09:15:28.967Z,5.55
2022-12-07T09:16:28.992Z,5.52
2022-12-07T09:17:28.880Z,5.47
2022-12-07T09:18:28.891Z,5.57
2022-12-07T09:19:28.858Z,5.55
2022-12-07T09:20:28.956Z,5.48
2022-12-07T09:21:28.854Z,5.55
2022-12-07T09:22:28.832Z,5.52
2022-12-07T09:23:28.826Z,5.52
2022-12-07T09:24:28.808Z,5.54
2022-12-07T09:25:28.816Z,5.57
2022-12-07T09:26:28.793Z,5.59
2022-12-07T09:27:28.811Z,5.59
2022-12-07T09:28:28.792Z,5.55
2022-12-07T09:29:28.773Z,5.61
2022-12-07T09:30:28.740Z,5.54
2022-12-07T09:31:28.848Z,5.58
2022-12-07T09:32:28.777Z,5.58
2022-12-07T09:33:28.747Z,5.62
2022-12-07T09:34:28.781Z,5.59
2022-12-07T09:35:28.689Z,5.62
2022-12-07T09:36:28.718Z,5.57
2022-12-07T09:37:28.672Z,5.62
2022-12-07T09:38:28.683Z,5.55
2022-12-07T09:39:28.669Z,5.73
2022-12-07T09:40:28.651Z,5.66
2022-12-07T09:41:28.634Z,5.73
2022-12-07T09:42:28.693Z,5.73
2022-12-07T09:43:28.616Z,5.69
2022-12-07T09:44:28.623Z,5.72
2022-12-07T09:45:28.582Z,5.59
2022-12-07T09:46:28.659Z,5.70
2022-12-07T09:47:28.566Z,5.72
2022-12-07T09:48:28.573Z,5.62
2022-12-07T09:49:28.556Z,5.62
2022-12-07T09:50:28.532Z,5.70
2022-12-07T09:51:28.522Z,5.73
2022-12-07T09:52:28.524Z,5.72
2022-12-07T09:53:28.500Z,5.69
2022-12-07T09:54:28.519Z,5.67
2022-12-07T09:55:28.475Z,5.66
2022-12-07T09:56:28.472Z,5.73
2022-12-07T09:57:28.452Z,5.73
2022-12-07T09:58:28.445Z,5.69
2022-12-07T09:59:31.253Z,5.69
2022-12-07T10:00:29.416Z,5.73
2022-12-07T10:01:28.491Z,5.79
2022-12-07T10:02:28.430Z,5.66
2022-12-07T10:03:28.401Z,5.72
2022-12-07T10:04:28.413Z,5.72
2022-12-07T10:05:28.429Z,5.72
2022-12-07T10:06:28.351Z,5.72
2022-12-07T10:07:28.344Z,5.75
2022-12-07T10:08:28.456Z,5.84
2022-12-07T10:09:28.359Z,5.79
2022-12-07T10:10:29.287Z,5.73
2022-12-07T10:11:28.348Z,5.75
2022-12-07T10:12:28.295Z,5.76
2022-12-07T10:13:28.338Z,5.73
2022-12-07T10:14:44.191Z,5.77
2022-12-07T10:15:29.276Z,5.79
2022-12-07T10:16:28.390Z,5.72
2022-12-07T10:17:28.225Z,5.80
2022-12-07T10:18:28.256Z,5.79
2022-12-07T10:19:28.217Z,5.79
2022-12-07T10:20:28.215Z,5.82
2022-12-07T10:21:28.186Z,5.79
2022-12-07T10:22:31.903Z,5.79
2022-12-07T10:23:28.172Z,5.79
2022-12-07T10:24:28.185Z,5.84
2022-12-07T10:25:28.143Z,5.82
2022-12-07T10:26:28.138Z,5.77
2022-12-07T10:27:28.127Z,5.84
2022-12-07T10:28:28.115Z,5.77
2022-12-07T10:29:28.148Z,5.84
2022-12-07T10:30:28.095Z,5.88
2022-12-07T10:31:28.142Z,5.88
2022-12-07T10:32:28.087Z,5.82
2022-12-07T10:33:28.054Z,5.87
2022-12-07T10:34:28.045Z,5.90
2022-12-07T10:35:28.067Z,5.87
2022-12-07T10:36:28.028Z,5.88
2022-12-07T10:37:28.014Z,5.93
2022-12-07T10:38:28.021Z,5.87
2022-12-07T10:39:28.024Z,5.91
2022-12-07T10:40:28.017Z,5.93
2022-12-07T10:41:27.964Z,5.97
2022-12-07T10:42:27.973Z,5.95
2022-12-07T10:43:27.952Z,5.97
2022-12-07T10:44:27.940Z,6.02
2022-12-07T10:45:28.005Z,5.93
2022-12-07T10:46:28.026Z,5.98
2022-12-07T10:47:28.082Z,6.00
2022-12-07T10:48:27.896Z,5.93
2022-12-07T10:49:27.884Z,5.95
2022-12-07T10:50:27.905Z,5.94
2022-12-07T10:51:27.891Z,5.94
2022-12-07T10:52:27.859Z,5.93
2022-12-07T10:53:27.839Z,6.06
2022-12-07T10:54:27.846Z,5.94
2022-12-07T10:55:27.854Z,5.93
2022-12-07T10:56:27.833Z,6.09
2022-12-07T10:57:27.873Z,6.12
2022-12-07T10:58:27.823Z,5.97
2022-12-07T10:59:27.870Z,6.11
2022-12-07T11:00:27.926Z,6.03
2022-12-07T11:01:27.890Z,6.06
2022-12-07T11:02:27.870Z,6.08
2022-12-07T11:03:27.762Z,6.11
2022-12-07T11:04:27.729Z,6.13
2022-12-07T11:05:27.798Z,6.15
2022-12-07T11:06:27.738Z,6.11
2022-12-07T11:07:27.717Z,6.09
2022-12-07T11:08:27.805Z,6.02
2022-12-07T11:09:59.419Z,6.13
2022-12-07T11:10:28.701Z,6.16
2022-12-07T11:11:27.659Z,6.16
2022-12-07T11:12:27.638Z,6.16
2022-12-07T11:13:29.013Z,6.16
2022-12-07T11:14:27.637Z,6.21
2022-12-07T11:15:27.643Z,6.06
2022-12-07T11:16:27.684Z,6.08
2022-12-07T11:17:27.602Z,6.13
2022-12-07T11:18:27.572Z,6.15
2022-12-07T11:19:28.583Z,6.08
2022-12-07T11:20:27.608Z,6.12
2022-12-07T11:21:27.563Z,6.19
2022-12-07T11:22:27.531Z,6.08
2022-12-07T11:23:27.525Z,6.12
2022-12-07T11:24:27.518Z,6.13
2022-12-07T11:25:28.967Z,6.15
2022-12-07T11:26:27.497Z,6.21
2022-12-07T11:27:27.493Z,6.18
2022-12-07T11:28:27.472Z,6.21
2022-12-07T11:29:27.468Z,6.18
2022-12-07T11:30:27.483Z,6.25
2022-12-07T11:31:29.515Z,6.16
2022-12-07T11:32:27.445Z,6.18
2022-12-07T11:33:27.425Z,6.11
2022-12-07T11:34:27.428Z,6.18
2022-12-07T11:35:27.441Z,6.18
2022-12-07T11:36:27.442Z,6.08
2022-12-07T11:37:27.381Z,6.18
2022-12-07T11:38:28.421Z,6.21
2022-12-07T11:39:27.354Z,6.09
2022-12-07T11:40:27.347Z,6.18
2022-12-07T11:41:27.340Z,6.18
2022-12-07T11:42:27.354Z,6.21
2022-12-07T11:43:27.311Z,6.21
2022-12-07T11:44:27.787Z,6.24
2022-12-07T11:45:27.290Z,6.16
2022-12-07T11:46:27.396Z,6.11
2022-12-07T11:47:27.290Z,6.24
2022-12-07T11:48:27.254Z,6.18
2022-12-07T11:49:27.245Z,6.16
2022-12-07T11:50:27.299Z,6.24
2022-12-07T11:51:33.205Z,6.13
2022-12-07T11:52:28.228Z,6.16
2022-12-07T11:53:27.203Z,6.24
2022-12-07T11:54:27.227Z,6.19
2022-12-07T11:55:27.184Z,6.19
2022-12-07T11:56:27.179Z,6.27
2022-12-07T11:57:27.161Z,6.15
2022-12-07T11:58:27.149Z,6.28
2022-12-07T11:59:27.183Z,6.24
2022-12-07T12:00:27.125Z,6.28
2022-12-07T12:01:27.121Z,6.28
2022-12-07T12:02:27.197Z,6.34
2022-12-07T12:03:27.199Z,6.31
2022-12-07T12:04:27.085Z,6.31
2022-12-07T12:05:27.081Z,6.25
2022-12-07T12:06:27.062Z,6.28
2022-12-07T12:09:45.667Z,6.27
2022-12-07T12:10:28.050Z,6.28
2022-12-07T12:11:27.086Z,6.35
2022-12-07T12:15:26.975Z,6.32
2022-12-07T12:16:27.027Z,6.31
2022-12-07T12:17:27.079Z,6.32
2022-12-07T12:18:26.988Z,6.34
2022-12-07T12:19:26.958Z,6.32
2022-12-07T12:20:26.971Z,6.30
2022-12-07T12:21:26.911Z,6.31
2022-12-07T12:22:26.897Z,6.28
2022-12-07T12:23:26.946Z,6.35
2022-12-07T12:24:26.954Z,6.32
2022-12-07T12:25:26.910Z,6.31
2022-12-07T12:26:26.969Z,6.30
2022-12-07T12:27:26.867Z,6.30
2022-12-07T12:28:26.840Z,6.32
2022-12-07T12:29:26.863Z,6.32
2022-12-07T12:30:26.804Z,6.35
2022-12-07T12:31:26.820Z,6.32
2022-12-07T12:32:26.811Z,6.25
2022-12-07T12:33:26.787Z,6.34
2022-12-07T12:34:26.780Z,6.28
2022-12-07T12:35:26.772Z,6.31
2022-12-07T12:36:26.936Z,6.34
2022-12-07T12:37:26.776Z,6.27
2022-12-07T12:38:26.750Z,6.35
2022-12-07T12:39:26.732Z,6.30
2022-12-07T12:40:26.701Z,6.25
2022-12-07T12:41:26.691Z,6.47
2022-12-07T12:42:26.677Z,6.25
2022-12-07T12:43:26.812Z,6.31
2022-12-07T12:44:26.671Z,6.27
2022-12-07T12:45:26.676Z,6.31
2022-12-07T12:46:26.798Z,6.32
2022-12-07T12:47:26.643Z,6.28
2022-12-07T12:48:26.652Z,6.37
2022-12-07T12:49:26.600Z,6.40
2022-12-07T12:50:26.601Z,6.27
2022-12-07T12:51:26.607Z,6.32
2022-12-07T12:52:26.844Z,6.43
2022-12-07T12:53:26.569Z,6.38
2022-12-07T12:54:26.594Z,6.30
2022-12-07T12:55:26.565Z,6.43
2022-12-07T12:56:26.566Z,6.32
2022-12-07T12:57:26.557Z,6.37
2022-12-07T12:58:26.509Z,6.40
2022-12-07T12:59:26.550Z,6.34
2022-12-07T13:00:26.509Z,6.38
2022-12-07T13:01:26.561Z,6.43
2022-12-07T13:02:26.621Z,6.32
2022-12-07T13:03:26.466Z,6.38
2022-12-07T13:04:26.447Z,6.34
2022-12-07T13:05:26.448Z,6.38
2022-12-07T13:06:26.424Z,6.42
2022-12-07T13:07:26.443Z,6.37
2022-12-07T13:08:30.621Z,6.40
2022-12-07T13:09:27.420Z,6.32
2022-12-07T13:10:26.383Z,6.32
2022-12-07T13:11:26.433Z,6.34
2022-12-07T13:12:26.375Z,6.30
2022-12-07T13:13:26.393Z,6.30
2022-12-07T13:14:29.650Z,6.34
2022-12-07T13:15:27.326Z,6.32
2022-12-07T13:16:26.388Z,6.45
2022-12-07T13:17:26.311Z,6.46
2022-12-07T13:18:26.334Z,6.40
2022-12-07T13:19:26.280Z,6.31
2022-12-07T13:20:26.264Z,6.42
2022-12-07T13:21:26.285Z,6.37
2022-12-07T13:22:26.281Z,6.32
2022-12-07T13:23:26.280Z,6.45